Jiaonan, China
Current Conditions -  °F | °C
As of 6:00 PM on Thursday 23 Oct 2014 (Local Time) from ZSQD Reporting Station
Haze Haze  
Wind Chill: 18°   Ceiling: Unl
Heat Index: 18°   Visibility: 2.5mi
Dew Point: 13°   Wind: 13mph
Humidity: 73%   Direction: 180°S
Pressure: 30"   Gusts: NA
Location:  35.88°N, 119.96°E
Report Text: ZSQD 231000Z 18006MPS 4000 BR NSC 18/13 Q1016 NOSIG
Loading
Personal Weather Stations






























Interactive Weather Map
Tropical Storm Tracking
New forecast layout! Learn more

10-Day Weather Forecast

Advertisements
Track Severe Weather on mobile